Terminal Aerodrome Forecast
Issued by NWS Louisville, KY

Home | Current Version | Previous Version | Text Only | Print | Product List | Glossary On
Versions: 1 2 3 4 5 6 7 8 9 10 11 12 13
000
FTUS43 KLMK 070500
TAFBWG
TAF
KBWG 070523Z 0706/0806 00000KT P6SM BKN100
     FM070900 00000KT 6SM BR SCT100
     FM071400 24005KT P6SM SCT050=

USA.gov is the U.S. government's official web portal to all federal, state and local government web resources and services.